sensor_id;sensor_type;location;lat;lon;timestamp;P1;durP1;ratioP1;P2;durP2;ratioP2
11535;SDS011;5824;49.336;8.652;2022-07-29T00:00:00;8.13;;;5.27;;
11535;SDS011;5824;49.336;8.652;2022-07-29T00:02:27;6.60;;;5.20;;
11535;SDS011;5824;49.336;8.652;2022-07-29T00:04:53;9.10;;;5.47;;
11535;SDS011;5824;49.336;8.652;2022-07-29T00:07:19;10.80;;;5.53;;
11535;SDS011;5824;49.336;8.652;2022-07-29T00:09:44;8.07;;;5.07;;
11535;SDS011;5824;49.336;8.652;2022-07-29T00:12:10;6.67;;;5.27;;
11535;SDS011;5824;49.336;8.652;2022-07-29T00:14:36;8.50;;;5.67;;
11535;SDS011;5824;49.336;8.652;2022-07-29T00:17:01;9.40;;;5.77;;
11535;SDS011;5824;49.336;8.652;2022-07-29T00:19:27;6.70;;;5.70;;
11535;SDS011;5824;49.336;8.652;2022-07-29T00:21:52;6.57;;;5.40;;
11535;SDS011;5824;49.336;8.652;2022-07-29T00:24:18;8.63;;;6.20;;
11535;SDS011;5824;49.336;8.652;2022-07-29T00:26:43;6.40;;;5.80;;
11535;SDS011;5824;49.336;8.652;2022-07-29T00:29:09;6.53;;;5.83;;
11535;SDS011;5824;49.336;8.652;2022-07-29T00:31:34;6.70;;;5.47;;
11535;SDS011;5824;49.336;8.652;2022-07-29T00:34:00;7.17;;;5.63;;
11535;SDS011;5824;49.336;8.652;2022-07-29T00:36:27;7.97;;;5.70;;
11535;SDS011;5824;49.336;8.652;2022-07-29T00:38:52;5.53;;;4.90;;
11535;SDS011;5824;49.336;8.652;2022-07-29T00:41:18;11.63;;;5.87;;
11535;SDS011;5824;49.336;8.652;2022-07-29T00:43:44;6.73;;;5.13;;
11535;SDS011;5824;49.336;8.652;2022-07-29T00:46:10;8.97;;;5.57;;
11535;SDS011;5824;49.336;8.652;2022-07-29T00:48:36;6.93;;;5.70;;
11535;SDS011;5824;49.336;8.652;2022-07-29T00:51:02;7.00;;;5.83;;
11535;SDS011;5824;49.336;8.652;2022-07-29T00:53:29;7.40;;;5.60;;
11535;SDS011;5824;49.336;8.652;2022-07-29T00:55:56;8.53;;;6.17;;
11535;SDS011;5824;49.336;8.652;2022-07-29T00:58:22;8.87;;;5.70;;
11535;SDS011;5824;49.336;8.652;2022-07-29T01:00:48;8.80;;;5.70;;
11535;SDS011;5824;49.336;8.652;2022-07-29T01:03:14;6.93;;;5.70;;
11535;SDS011;5824;49.336;8.652;2022-07-29T01:05:40;7.47;;;6.10;;
11535;SDS011;5824;49.336;8.652;2022-07-29T01:08:07;7.23;;;5.87;;
11535;SDS011;5824;49.336;8.652;2022-07-29T01:10:33;8.03;;;5.80;;
11535;SDS011;5824;49.336;8.652;2022-07-29T01:13:03;8.57;;;5.70;;
11535;SDS011;5824;49.336;8.652;2022-07-29T01:15:29;8.13;;;5.90;;
11535;SDS011;5824;49.336;8.652;2022-07-29T01:18:00;6.57;;;5.30;;
11535;SDS011;5824;49.336;8.652;2022-07-29T01:31:33;7.57;;;5.73;;
11535;SDS011;5824;49.336;8.652;2022-07-29T01:34:02;7.23;;;6.20;;
11535;SDS011;5824;49.336;8.652;2022-07-29T01:36:37;8.43;;;5.90;;
11535;SDS011;5824;49.336;8.652;2022-07-29T01:39:09;7.97;;;6.50;;
11535;SDS011;5824;49.336;8.652;2022-07-29T01:41:40;8.13;;;6.00;;
11535;SDS011;5824;49.336;8.652;2022-07-29T01:44:14;8.00;;;6.13;;
11535;SDS011;5824;49.336;8.652;2022-07-29T01:46:52;8.70;;;6.50;;
11535;SDS011;5824;49.336;8.652;2022-07-29T01:49:21;8.10;;;6.10;;
11535;SDS011;5824;49.336;8.652;2022-07-29T01:51:59;9.03;;;6.70;;
11535;SDS011;5824;49.336;8.652;2022-07-29T01:54:37;9.60;;;5.83;;
11535;SDS011;5824;49.336;8.652;2022-07-29T01:57:11;6.80;;;5.53;;
11535;SDS011;5824;49.336;8.652;2022-07-29T01:59:40;9.37;;;6.43;;
11535;SDS011;5824;49.336;8.652;2022-07-29T02:02:08;8.10;;;6.27;;
11535;SDS011;5824;49.336;8.652;2022-07-29T02:04:36;6.90;;;6.07;;
11535;SDS011;5824;49.336;8.652;2022-07-29T02:07:05;8.83;;;5.90;;
11535;SDS011;5824;49.336;8.652;2022-07-29T02:09:33;8.73;;;6.40;;
11535;SDS011;5824;49.336;8.652;2022-07-29T02:12:02;8.17;;;6.27;;
11535;SDS011;5824;49.336;8.652;2022-07-29T02:14:30;7.07;;;5.90;;
11535;SDS011;5824;49.336;8.652;2022-07-29T02:17:02;8.57;;;5.97;;
11535;SDS011;5824;49.336;8.652;2022-07-29T02:19:29;7.60;;;6.00;;
11535;SDS011;5824;49.336;8.652;2022-07-29T02:21:57;9.13;;;6.00;;
11535;SDS011;5824;49.336;8.652;2022-07-29T02:24:24;12.07;;;6.70;;
11535;SDS011;5824;49.336;8.652;2022-07-29T02:26:52;8.57;;;6.27;;
11535;SDS011;5824;49.336;8.652;2022-07-29T02:29:21;7.97;;;6.33;;
11535;SDS011;5824;49.336;8.652;2022-07-29T02:31:48;7.60;;;5.70;;
11535;SDS011;5824;49.336;8.652;2022-07-29T02:34:15;7.37;;;6.10;;
11535;SDS011;5824;49.336;8.652;2022-07-29T02:36:42;7.17;;;6.30;;
11535;SDS011;5824;49.336;8.652;2022-07-29T02:39:09;7.40;;;6.60;;
11535;SDS011;5824;49.336;8.652;2022-07-29T02:41:40;7.73;;;6.10;;
11535;SDS011;5824;49.336;8.652;2022-07-29T02:44:15;7.37;;;6.30;;
11535;SDS011;5824;49.336;8.652;2022-07-29T02:46:48;7.60;;;6.20;;
11535;SDS011;5824;49.336;8.652;2022-07-29T02:51:46;9.30;;;6.43;;
11535;SDS011;5824;49.336;8.652;2022-07-29T02:54:26;8.30;;;5.93;;
11535;SDS011;5824;49.336;8.652;2022-07-29T02:57:08;9.33;;;6.57;;
11535;SDS011;5824;49.336;8.652;2022-07-29T02:59:39;6.93;;;5.80;;
11535;SDS011;5824;49.336;8.652;2022-07-29T03:02:07;7.00;;;6.30;;
11535;SDS011;5824;49.336;8.652;2022-07-29T03:04:34;7.87;;;5.80;;
11535;SDS011;5824;49.336;8.652;2022-07-29T03:07:02;7.57;;;5.80;;
11535;SDS011;5824;49.336;8.652;2022-07-29T03:09:29;8.27;;;6.47;;
11535;SDS011;5824;49.336;8.652;2022-07-29T03:11:56;6.67;;;5.60;;
11535;SDS011;5824;49.336;8.652;2022-07-29T03:14:22;10.00;;;6.40;;
11535;SDS011;5824;49.336;8.652;2022-07-29T03:16:49;8.30;;;5.97;;
11535;SDS011;5824;49.336;8.652;2022-07-29T03:19:16;8.03;;;6.30;;
11535;SDS011;5824;49.336;8.652;2022-07-29T03:21:42;7.00;;;5.90;;
11535;SDS011;5824;49.336;8.652;2022-07-29T03:24:07;7.83;;;5.90;;
11535;SDS011;5824;49.336;8.652;2022-07-29T03:26:33;6.80;;;6.10;;
11535;SDS011;5824;49.336;8.652;2022-07-29T03:28:59;9.73;;;5.70;;
11535;SDS011;5824;49.336;8.652;2022-07-29T03:31:24;7.73;;;5.50;;
11535;SDS011;5824;49.336;8.652;2022-07-29T03:33:50;7.50;;;6.00;;
11535;SDS011;5824;49.336;8.652;2022-07-29T03:36:16;7.57;;;6.10;;
11535;SDS011;5824;49.336;8.652;2022-07-29T03:38:42;7.07;;;6.00;;
11535;SDS011;5824;49.336;8.652;2022-07-29T03:41:09;6.60;;;5.80;;
11535;SDS011;5824;49.336;8.652;2022-07-29T03:43:37;9.17;;;5.60;;
11535;SDS011;5824;49.336;8.652;2022-07-29T03:46:06;7.07;;;5.87;;
11535;SDS011;5824;49.336;8.652;2022-07-29T03:48:34;6.80;;;5.83;;
11535;SDS011;5824;49.336;8.652;2022-07-29T03:51:03;5.93;;;5.33;;
11535;SDS011;5824;49.336;8.652;2022-07-29T03:53:29;7.73;;;5.83;;
11535;SDS011;5824;49.336;8.652;2022-07-29T03:55:56;7.30;;;5.97;;
11535;SDS011;5824;49.336;8.652;2022-07-29T03:58:27;7.27;;;6.40;;
11535;SDS011;5824;49.336;8.652;2022-07-29T04:00:55;7.63;;;6.00;;
11535;SDS011;5824;49.336;8.652;2022-07-29T04:03:21;9.30;;;5.67;;
11535;SDS011;5824;49.336;8.652;2022-07-29T04:06:01;6.03;;;5.10;;
11535;SDS011;5824;49.336;8.652;2022-07-29T04:08:28;7.50;;;6.20;;
11535;SDS011;5824;49.336;8.652;2022-07-29T04:10:53;7.33;;;5.87;;
11535;SDS011;5824;49.336;8.652;2022-07-29T04:13:20;6.90;;;5.80;;
11535;SDS011;5824;49.336;8.652;2022-07-29T04:15:45;7.80;;;5.90;;
11535;SDS011;5824;49.336;8.652;2022-07-29T04:18:11;7.00;;;6.00;;
11535;SDS011;5824;49.336;8.652;2022-07-29T04:20:36;7.17;;;5.60;;
11535;SDS011;5824;49.336;8.652;2022-07-29T04:23:02;9.73;;;6.43;;
11535;SDS011;5824;49.336;8.652;2022-07-29T04:25:27;7.70;;;6.10;;
11535;SDS011;5824;49.336;8.652;2022-07-29T04:27:53;9.50;;;6.40;;
11535;SDS011;5824;49.336;8.652;2022-07-29T04:30:28;9.67;;;6.13;;
11535;SDS011;5824;49.336;8.652;2022-07-29T04:32:54;8.40;;;5.87;;
11535;SDS011;5824;49.336;8.652;2022-07-29T04:35:20;7.40;;;5.97;;
11535;SDS011;5824;49.336;8.652;2022-07-29T04:37:46;8.47;;;5.77;;
11535;SDS011;5824;49.336;8.652;2022-07-29T04:40:11;7.70;;;5.73;;
11535;SDS011;5824;49.336;8.652;2022-07-29T04:42:37;7.93;;;6.30;;
11535;SDS011;5824;49.336;8.652;2022-07-29T04:45:03;9.57;;;6.53;;
11535;SDS011;5824;49.336;8.652;2022-07-29T04:47:29;8.63;;;6.03;;
11535;SDS011;5824;49.336;8.652;2022-07-29T04:49:55;7.00;;;5.83;;
11535;SDS011;5824;49.336;8.652;2022-07-29T04:52:21;12.20;;;6.60;;
11535;SDS011;5824;49.336;8.652;2022-07-29T04:54:47;8.57;;;6.30;;
11535;SDS011;5824;49.336;8.652;2022-07-29T04:57:12;8.60;;;6.07;;
11535;SDS011;5824;49.336;8.652;2022-07-29T04:59:38;8.60;;;5.83;;
11535;SDS011;5824;49.336;8.652;2022-07-29T05:02:04;6.73;;;5.90;;
11535;SDS011;5824;49.336;8.652;2022-07-29T05:04:29;8.27;;;5.80;;
11535;SDS011;5824;49.336;8.652;2022-07-29T05:06:55;8.23;;;6.07;;
11535;SDS011;5824;49.336;8.652;2022-07-29T05:09:20;9.37;;;5.70;;
11535;SDS011;5824;49.336;8.652;2022-07-29T05:11:46;7.93;;;5.87;;
11535;SDS011;5824;49.336;8.652;2022-07-29T05:14:11;8.00;;;5.97;;
11535;SDS011;5824;49.336;8.652;2022-07-29T05:16:37;9.23;;;5.73;;
11535;SDS011;5824;49.336;8.652;2022-07-29T05:19:04;7.53;;;5.63;;
11535;SDS011;5824;49.336;8.652;2022-07-29T05:21:30;6.60;;;5.20;;
11535;SDS011;5824;49.336;8.652;2022-07-29T05:23:56;7.80;;;5.60;;
11535;SDS011;5824;49.336;8.652;2022-07-29T05:26:21;9.63;;;5.77;;
11535;SDS011;5824;49.336;8.652;2022-07-29T05:28:48;8.67;;;5.67;;
11535;SDS011;5824;49.336;8.652;2022-07-29T05:31:13;6.63;;;5.50;;
11535;SDS011;5824;49.336;8.652;2022-07-29T05:33:39;7.20;;;5.40;;
11535;SDS011;5824;49.336;8.652;2022-07-29T05:36:05;6.70;;;5.37;;
11535;SDS011;5824;49.336;8.652;2022-07-29T05:38:32;9.60;;;5.40;;
11535;SDS011;5824;49.336;8.652;2022-07-29T05:40:58;8.33;;;5.50;;
11535;SDS011;5824;49.336;8.652;2022-07-29T05:43:24;8.83;;;5.60;;
11535;SDS011;5824;49.336;8.652;2022-07-29T05:45:50;6.23;;;5.63;;
11535;SDS011;5824;49.336;8.652;2022-07-29T05:48:16;5.90;;;5.00;;
11535;SDS011;5824;49.336;8.652;2022-07-29T05:50:41;8.23;;;5.53;;
11535;SDS011;5824;49.336;8.652;2022-07-29T05:53:07;7.33;;;4.87;;
11535;SDS011;5824;49.336;8.652;2022-07-29T05:55:32;6.90;;;4.97;;
11535;SDS011;5824;49.336;8.652;2022-07-29T05:57:58;6.03;;;4.57;;
11535;SDS011;5824;49.336;8.652;2022-07-29T06:00:23;7.93;;;5.00;;
11535;SDS011;5824;49.336;8.652;2022-07-29T06:02:49;7.17;;;5.50;;
11535;SDS011;5824;49.336;8.652;2022-07-29T06:05:15;9.33;;;5.10;;
11535;SDS011;5824;49.336;8.652;2022-07-29T06:07:40;8.20;;;5.00;;
11535;SDS011;5824;49.336;8.652;2022-07-29T06:10:06;11.13;;;5.20;;
11535;SDS011;5824;49.336;8.652;2022-07-29T06:12:31;6.57;;;5.10;;
11535;SDS011;5824;49.336;8.652;2022-07-29T06:14:57;8.77;;;5.10;;
11535;SDS011;5824;49.336;8.652;2022-07-29T06:17:23;6.43;;;5.40;;
11535;SDS011;5824;49.336;8.652;2022-07-29T06:19:48;6.07;;;4.77;;
11535;SDS011;5824;49.336;8.652;2022-07-29T06:22:17;7.40;;;4.70;;
11535;SDS011;5824;49.336;8.652;2022-07-29T06:24:42;8.43;;;5.37;;
11535;SDS011;5824;49.336;8.652;2022-07-29T06:27:09;8.67;;;5.37;;
11535;SDS011;5824;49.336;8.652;2022-07-29T06:29:35;6.50;;;5.10;;
11535;SDS011;5824;49.336;8.652;2022-07-29T06:32:01;7.63;;;5.30;;
11535;SDS011;5824;49.336;8.652;2022-07-29T06:34:27;5.80;;;4.97;;
11535;SDS011;5824;49.336;8.652;2022-07-29T06:36:53;6.20;;;5.13;;
11535;SDS011;5824;49.336;8.652;2022-07-29T06:39:18;9.93;;;5.20;;
11535;SDS011;5824;49.336;8.652;2022-07-29T06:41:47;11.97;;;5.53;;
11535;SDS011;5824;49.336;8.652;2022-07-29T06:44:14;9.30;;;5.67;;
11535;SDS011;5824;49.336;8.652;2022-07-29T06:46:40;11.00;;;5.90;;
11535;SDS011;5824;49.336;8.652;2022-07-29T06:49:06;7.57;;;5.27;;
11535;SDS011;5824;49.336;8.652;2022-07-29T06:51:32;7.93;;;5.30;;
11535;SDS011;5824;49.336;8.652;2022-07-29T06:53:58;7.67;;;5.40;;
11535;SDS011;5824;49.336;8.652;2022-07-29T06:56:23;12.47;;;6.47;;
11535;SDS011;5824;49.336;8.652;2022-07-29T06:58:49;9.47;;;6.47;;
11535;SDS011;5824;49.336;8.652;2022-07-29T07:01:15;7.40;;;6.00;;
11535;SDS011;5824;49.336;8.652;2022-07-29T07:03:41;6.90;;;6.20;;
11535;SDS011;5824;49.336;8.652;2022-07-29T07:06:07;7.10;;;5.93;;
11535;SDS011;5824;49.336;8.652;2022-07-29T07:08:33;8.30;;;5.83;;
11535;SDS011;5824;49.336;8.652;2022-07-29T07:10:58;10.27;;;6.90;;
11535;SDS011;5824;49.336;8.652;2022-07-29T07:13:24;10.57;;;6.73;;
11535;SDS011;5824;49.336;8.652;2022-07-29T07:15:50;7.90;;;6.60;;
11535;SDS011;5824;49.336;8.652;2022-07-29T07:18:17;7.97;;;6.13;;
11535;SDS011;5824;49.336;8.652;2022-07-29T07:20:43;9.47;;;6.33;;
11535;SDS011;5824;49.336;8.652;2022-07-29T07:23:09;8.13;;;6.20;;
11535;SDS011;5824;49.336;8.652;2022-07-29T07:25:35;8.27;;;5.93;;
11535;SDS011;5824;49.336;8.652;2022-07-29T07:28:01;8.27;;;6.00;;
11535;SDS011;5824;49.336;8.652;2022-07-29T07:30:27;13.07;;;6.10;;
11535;SDS011;5824;49.336;8.652;2022-07-29T07:32:53;7.60;;;6.00;;
11535;SDS011;5824;49.336;8.652;2022-07-29T07:35:20;11.50;;;6.47;;
11535;SDS011;5824;49.336;8.652;2022-07-29T07:37:46;9.30;;;5.70;;
11535;SDS011;5824;49.336;8.652;2022-07-29T07:40:11;9.93;;;5.80;;
11535;SDS011;5824;49.336;8.652;2022-07-29T07:42:38;12.20;;;6.67;;
11535;SDS011;5824;49.336;8.652;2022-07-29T07:45:04;9.40;;;6.30;;
11535;SDS011;5824;49.336;8.652;2022-07-29T07:47:31;7.13;;;5.93;;
11535;SDS011;5824;49.336;8.652;2022-07-29T07:49:57;15.40;;;6.87;;
11535;SDS011;5824;49.336;8.652;2022-07-29T07:52:22;12.87;;;6.73;;
11535;SDS011;5824;49.336;8.652;2022-07-29T07:54:48;10.20;;;6.33;;
11535;SDS011;5824;49.336;8.652;2022-07-29T07:57:14;7.77;;;6.10;;
11535;SDS011;5824;49.336;8.652;2022-07-29T07:59:39;8.63;;;6.63;;
11535;SDS011;5824;49.336;8.652;2022-07-29T08:02:05;10.70;;;6.40;;
11535;SDS011;5824;49.336;8.652;2022-07-29T08:04:32;9.13;;;6.90;;
11535;SDS011;5824;49.336;8.652;2022-07-29T08:06:57;8.20;;;5.90;;
11535;SDS011;5824;49.336;8.652;2022-07-29T08:09:24;8.40;;;6.60;;
11535;SDS011;5824;49.336;8.652;2022-07-29T08:11:50;14.83;;;7.40;;
11535;SDS011;5824;49.336;8.652;2022-07-29T08:14:16;9.50;;;6.47;;
11535;SDS011;5824;49.336;8.652;2022-07-29T08:16:42;10.53;;;7.20;;
11535;SDS011;5824;49.336;8.652;2022-07-29T08:19:08;10.50;;;6.83;;
11535;SDS011;5824;49.336;8.652;2022-07-29T08:21:34;9.23;;;7.27;;
11535;SDS011;5824;49.336;8.652;2022-07-29T08:24:00;8.40;;;7.03;;
11535;SDS011;5824;49.336;8.652;2022-07-29T08:26:44;11.47;;;7.50;;
11535;SDS011;5824;49.336;8.652;2022-07-29T08:29:10;8.13;;;7.10;;
11535;SDS011;5824;49.336;8.652;2022-07-29T08:31:36;12.00;;;7.88;;
11535;SDS011;5824;49.336;8.652;2022-07-29T08:34:03;11.30;;;7.23;;
11535;SDS011;5824;49.336;8.652;2022-07-29T08:36:29;10.00;;;7.50;;
11535;SDS011;5824;49.336;8.652;2022-07-29T08:38:55;8.33;;;7.10;;
11535;SDS011;5824;49.336;8.652;2022-07-29T08:41:22;10.93;;;7.30;;
11535;SDS011;5824;49.336;8.652;2022-07-29T08:43:48;11.33;;;7.20;;
11535;SDS011;5824;49.336;8.652;2022-07-29T08:46:14;12.80;;;7.73;;
11535;SDS011;5824;49.336;8.652;2022-07-29T08:48:41;9.65;;;7.35;;
11535;SDS011;5824;49.336;8.652;2022-07-29T08:51:07;9.43;;;6.80;;
11535;SDS011;5824;49.336;8.652;2022-07-29T08:53:37;8.73;;;7.68;;
11535;SDS011;5824;49.336;8.652;2022-07-29T08:56:06;9.32;;;7.45;;
11535;SDS011;5824;49.336;8.652;2022-07-29T08:58:35;12.18;;;7.80;;
11535;SDS011;5824;49.336;8.652;2022-07-29T09:01:01;11.00;;;8.07;;
11535;SDS011;5824;49.336;8.652;2022-07-29T09:03:31;10.13;;;7.55;;
11535;SDS011;5824;49.336;8.652;2022-07-29T09:05:58;10.63;;;7.47;;
11535;SDS011;5824;49.336;8.652;2022-07-29T09:08:24;7.78;;;5.93;;
11535;SDS011;5824;49.336;8.652;2022-07-29T09:10:50;7.57;;;6.38;;
11535;SDS011;5824;49.336;8.652;2022-07-29T09:13:16;8.32;;;6.30;;
11535;SDS011;5824;49.336;8.652;2022-07-29T09:15:43;10.70;;;6.10;;
11535;SDS011;5824;49.336;8.652;2022-07-29T09:18:08;7.35;;;5.78;;
11535;SDS011;5824;49.336;8.652;2022-07-29T09:20:34;6.38;;;5.72;;
11535;SDS011;5824;49.336;8.652;2022-07-29T09:23:18;8.93;;;5.93;;
11535;SDS011;5824;49.336;8.652;2022-07-29T09:25:44;7.13;;;6.13;;
11535;SDS011;5824;49.336;8.652;2022-07-29T09:28:13;7.05;;;5.63;;
11535;SDS011;5824;49.336;8.652;2022-07-29T09:30:54;7.93;;;6.40;;
11535;SDS011;5824;49.336;8.652;2022-07-29T09:33:21;10.00;;;6.60;;
11535;SDS011;5824;49.336;8.652;2022-07-29T09:36:07;8.35;;;6.40;;
11535;SDS011;5824;49.336;8.652;2022-07-29T09:38:34;7.40;;;6.70;;
11535;SDS011;5824;49.336;8.652;2022-07-29T09:41:02;8.98;;;7.25;;
11535;SDS011;5824;49.336;8.652;2022-07-29T09:43:28;9.48;;;7.22;;
11535;SDS011;5824;49.336;8.652;2022-07-29T09:45:54;8.38;;;6.50;;
11535;SDS011;5824;49.336;8.652;2022-07-29T09:48:21;9.70;;;5.68;;
11535;SDS011;5824;49.336;8.652;2022-07-29T09:50:48;11.98;;;6.43;;
11535;SDS011;5824;49.336;8.652;2022-07-29T09:53:34;8.90;;;6.40;;
11535;SDS011;5824;49.336;8.652;2022-07-29T09:56:01;9.35;;;6.30;;
11535;SDS011;5824;49.336;8.652;2022-07-29T09:58:27;6.88;;;5.75;;
11535;SDS011;5824;49.336;8.652;2022-07-29T10:00:53;8.80;;;6.15;;
11535;SDS011;5824;49.336;8.652;2022-07-29T10:03:20;9.25;;;6.22;;
11535;SDS011;5824;49.336;8.652;2022-07-29T10:05:46;12.52;;;6.20;;
11535;SDS011;5824;49.336;8.652;2022-07-29T10:08:36;6.25;;;5.65;;
11535;SDS011;5824;49.336;8.652;2022-07-29T10:11:08;5.72;;;5.13;;
11535;SDS011;5824;49.336;8.652;2022-07-29T10:13:42;8.52;;;5.35;;
11535;SDS011;5824;49.336;8.652;2022-07-29T10:16:09;8.65;;;5.63;;
11535;SDS011;5824;49.336;8.652;2022-07-29T10:18:36;7.93;;;5.63;;
11535;SDS011;5824;49.336;8.652;2022-07-29T10:21:03;6.40;;;5.75;;
11535;SDS011;5824;49.336;8.652;2022-07-29T10:23:29;10.75;;;5.53;;
11535;SDS011;5824;49.336;8.652;2022-07-29T10:25:55;9.02;;;5.40;;
11535;SDS011;5824;49.336;8.652;2022-07-29T10:28:21;5.85;;;4.95;;
11535;SDS011;5824;49.336;8.652;2022-07-29T10:30:47;9.43;;;4.88;;
11535;SDS011;5824;49.336;8.652;2022-07-29T10:41:39;9.73;;;5.38;;
11535;SDS011;5824;49.336;8.652;2022-07-29T10:44:30;8.48;;;5.20;;
11535;SDS011;5824;49.336;8.652;2022-07-29T10:46:58;10.13;;;5.30;;
11535;SDS011;5824;49.336;8.652;2022-07-29T10:49:24;6.78;;;4.82;;
11535;SDS011;5824;49.336;8.652;2022-07-29T10:57:10;5.95;;;4.95;;
11535;SDS011;5824;49.336;8.652;2022-07-29T10:59:39;7.55;;;5.22;;
11535;SDS011;5824;49.336;8.652;2022-07-29T11:05:04;8.95;;;5.68;;
11535;SDS011;5824;49.336;8.652;2022-07-29T11:10:36;12.52;;;5.35;;
11535;SDS011;5824;49.336;8.652;2022-07-29T11:13:02;7.82;;;5.10;;
11535;SDS011;5824;49.336;8.652;2022-07-29T11:15:27;9.00;;;5.32;;
11535;SDS011;5824;49.336;8.652;2022-07-29T11:22:59;6.45;;;4.72;;
11535;SDS011;5824;49.336;8.652;2022-07-29T11:25:25;6.95;;;4.80;;
11535;SDS011;5824;49.336;8.652;2022-07-29T11:27:52;10.07;;;4.53;;
11535;SDS011;5824;49.336;8.652;2022-07-29T11:30:18;5.25;;;4.43;;
11535;SDS011;5824;49.336;8.652;2022-07-29T11:32:44;10.35;;;5.20;;
11535;SDS011;5824;49.336;8.652;2022-07-29T11:35:15;6.00;;;4.43;;
11535;SDS011;5824;49.336;8.652;2022-07-29T11:37:43;6.57;;;4.80;;
11535;SDS011;5824;49.336;8.652;2022-07-29T11:40:11;12.13;;;4.85;;
11535;SDS011;5824;49.336;8.652;2022-07-29T11:42:38;5.70;;;4.70;;
11535;SDS011;5824;49.336;8.652;2022-07-29T11:45:06;6.88;;;4.30;;
11535;SDS011;5824;49.336;8.652;2022-07-29T11:47:35;6.45;;;4.32;;
11535;SDS011;5824;49.336;8.652;2022-07-29T11:50:13;10.60;;;4.88;;
11535;SDS011;5824;49.336;8.652;2022-07-29T11:52:43;5.63;;;4.40;;
11535;SDS011;5824;49.336;8.652;2022-07-29T11:55:17;6.13;;;4.70;;
11535;SDS011;5824;49.336;8.652;2022-07-29T12:00:36;6.57;;;4.38;;
11535;SDS011;5824;49.336;8.652;2022-07-29T12:03:04;9.25;;;4.60;;
11535;SDS011;5824;49.336;8.652;2022-07-29T12:08:09;5.47;;;4.40;;
11535;SDS011;5824;49.336;8.652;2022-07-29T12:10:37;7.03;;;4.60;;
11535;SDS011;5824;49.336;8.652;2022-07-29T12:13:03;10.20;;;4.20;;
11535;SDS011;5824;49.336;8.652;2022-07-29T12:15:29;6.20;;;4.40;;
11535;SDS011;5824;49.336;8.652;2022-07-29T12:17:55;5.03;;;4.38;;
11535;SDS011;5824;49.336;8.652;2022-07-29T12:22:54;7.65;;;4.70;;
11535;SDS011;5824;49.336;8.652;2022-07-29T12:25:21;8.25;;;4.85;;
11535;SDS011;5824;49.336;8.652;2022-07-29T12:27:57;6.07;;;4.32;;
11535;SDS011;5824;49.336;8.652;2022-07-29T12:30:33;5.95;;;4.18;;
11535;SDS011;5824;49.336;8.652;2022-07-29T12:33:00;5.80;;;4.60;;
11535;SDS011;5824;49.336;8.652;2022-07-29T12:35:25;6.80;;;4.43;;
11535;SDS011;5824;49.336;8.652;2022-07-29T12:37:51;7.78;;;5.22;;
11535;SDS011;5824;49.336;8.652;2022-07-29T12:40:17;6.72;;;4.75;;
11535;SDS011;5824;49.336;8.652;2022-07-29T12:45:43;8.05;;;5.75;;
11535;SDS011;5824;49.336;8.652;2022-07-29T12:48:10;8.55;;;4.80;;
11535;SDS011;5824;49.336;8.652;2022-07-29T12:50:51;9.85;;;5.30;;
11535;SDS011;5824;49.336;8.652;2022-07-29T12:53:21;7.10;;;4.95;;
11535;SDS011;5824;49.336;8.652;2022-07-29T12:55:47;11.43;;;6.43;;
11535;SDS011;5824;49.336;8.652;2022-07-29T13:01:15;7.25;;;5.32;;
11535;SDS011;5824;49.336;8.652;2022-07-29T13:03:47;9.15;;;5.60;;
11535;SDS011;5824;49.336;8.652;2022-07-29T13:06:40;7.38;;;5.53;;
11535;SDS011;5824;49.336;8.652;2022-07-29T13:09:14;8.23;;;5.38;;
11535;SDS011;5824;49.336;8.652;2022-07-29T13:11:43;9.25;;;5.90;;
11535;SDS011;5824;49.336;8.652;2022-07-29T13:14:11;17.27;;;5.60;;
11535;SDS011;5824;49.336;8.652;2022-07-29T13:19:37;6.38;;;5.20;;
11535;SDS011;5824;49.336;8.652;2022-07-29T13:22:05;10.82;;;5.30;;
11535;SDS011;5824;49.336;8.652;2022-07-29T13:24:32;7.53;;;5.35;;
11535;SDS011;5824;49.336;8.652;2022-07-29T13:26:58;9.23;;;5.03;;
11535;SDS011;5824;49.336;8.652;2022-07-29T13:29:23;7.28;;;5.47;;
11535;SDS011;5824;49.336;8.652;2022-07-29T13:31:51;6.50;;;5.20;;
11535;SDS011;5824;49.336;8.652;2022-07-29T13:34:16;8.23;;;5.50;;
11535;SDS011;5824;49.336;8.652;2022-07-29T13:36:44;9.55;;;5.38;;
11535;SDS011;5824;49.336;8.652;2022-07-29T13:39:09;13.30;;;6.10;;
11535;SDS011;5824;49.336;8.652;2022-07-29T13:41:36;7.53;;;5.85;;
11535;SDS011;5824;49.336;8.652;2022-07-29T13:44:01;8.20;;;5.50;;
11535;SDS011;5824;49.336;8.652;2022-07-29T13:46:27;6.93;;;5.70;;
11535;SDS011;5824;49.336;8.652;2022-07-29T13:48:53;13.45;;;5.70;;
11535;SDS011;5824;49.336;8.652;2022-07-29T13:51:18;8.75;;;5.30;;
11535;SDS011;5824;49.336;8.652;2022-07-29T13:53:44;7.97;;;5.38;;
11535;SDS011;5824;49.336;8.652;2022-07-29T13:56:09;6.38;;;5.70;;
11535;SDS011;5824;49.336;8.652;2022-07-29T13:58:35;8.38;;;5.28;;
11535;SDS011;5824;49.336;8.652;2022-07-29T14:01:01;6.10;;;5.43;;
11535;SDS011;5824;49.336;8.652;2022-07-29T14:03:26;8.55;;;6.07;;
11535;SDS011;5824;49.336;8.652;2022-07-29T14:05:52;9.07;;;5.55;;
11535;SDS011;5824;49.336;8.652;2022-07-29T14:08:18;11.73;;;5.63;;
11535;SDS011;5824;49.336;8.652;2022-07-29T14:10:43;12.25;;;5.55;;
11535;SDS011;5824;49.336;8.652;2022-07-29T14:13:09;6.53;;;5.82;;
11535;SDS011;5824;49.336;8.652;2022-07-29T14:15:34;6.13;;;5.20;;
11535;SDS011;5824;49.336;8.652;2022-07-29T14:18:00;6.78;;;5.55;;
11535;SDS011;5824;49.336;8.652;2022-07-29T14:20:26;10.63;;;5.10;;
11535;SDS011;5824;49.336;8.652;2022-07-29T14:22:54;8.80;;;5.30;;
11535;SDS011;5824;49.336;8.652;2022-07-29T14:25:20;6.60;;;4.95;;
11535;SDS011;5824;49.336;8.652;2022-07-29T14:27:45;6.55;;;4.65;;
11535;SDS011;5824;49.336;8.652;2022-07-29T14:30:11;8.55;;;4.88;;
11535;SDS011;5824;49.336;8.652;2022-07-29T14:32:37;7.47;;;4.68;;
11535;SDS011;5824;49.336;8.652;2022-07-29T14:35:03;6.15;;;5.10;;
11535;SDS011;5824;49.336;8.652;2022-07-29T14:37:29;8.23;;;5.20;;
11535;SDS011;5824;49.336;8.652;2022-07-29T14:39:54;9.50;;;5.20;;
11535;SDS011;5824;49.336;8.652;2022-07-29T14:42:24;13.02;;;5.20;;
11535;SDS011;5824;49.336;8.652;2022-07-29T14:44:49;6.75;;;4.85;;
11535;SDS011;5824;49.336;8.652;2022-07-29T14:47:15;5.97;;;4.90;;
11535;SDS011;5824;49.336;8.652;2022-07-29T14:49:40;7.55;;;4.78;;
11535;SDS011;5824;49.336;8.652;2022-07-29T14:52:06;7.47;;;4.70;;
11535;SDS011;5824;49.336;8.652;2022-07-29T14:54:31;7.50;;;4.53;;
11535;SDS011;5824;49.336;8.652;2022-07-29T14:56:57;7.10;;;4.57;;
11535;SDS011;5824;49.336;8.652;2022-07-29T14:59:22;6.30;;;4.82;;
11535;SDS011;5824;49.336;8.652;2022-07-29T15:01:48;5.50;;;4.68;;
11535;SDS011;5824;49.336;8.652;2022-07-29T15:04:14;5.10;;;4.32;;
11535;SDS011;5824;49.336;8.652;2022-07-29T15:06:40;7.90;;;4.43;;
11535;SDS011;5824;49.336;8.652;2022-07-29T15:09:05;8.75;;;4.57;;
11535;SDS011;5824;49.336;8.652;2022-07-29T15:11:31;8.95;;;4.20;;
11535;SDS011;5824;49.336;8.652;2022-07-29T15:13:56;7.38;;;4.03;;
11535;SDS011;5824;49.336;8.652;2022-07-29T15:16:22;7.22;;;4.20;;
11535;SDS011;5824;49.336;8.652;2022-07-29T15:18:48;6.53;;;3.60;;
11535;SDS011;5824;49.336;8.652;2022-07-29T15:21:14;11.18;;;3.70;;
11535;SDS011;5824;49.336;8.652;2022-07-29T15:23:40;9.00;;;4.15;;
11535;SDS011;5824;49.336;8.652;2022-07-29T15:26:05;10.25;;;3.53;;
11535;SDS011;5824;49.336;8.652;2022-07-29T15:28:31;4.43;;;3.15;;
11535;SDS011;5824;49.336;8.652;2022-07-29T15:30:56;6.05;;;3.70;;
11535;SDS011;5824;49.336;8.652;2022-07-29T15:33:22;13.57;;;3.33;;
11535;SDS011;5824;49.336;8.652;2022-07-29T15:35:48;7.43;;;3.55;;
11535;SDS011;5824;49.336;8.652;2022-07-29T15:38:13;5.65;;;3.35;;
11535;SDS011;5824;49.336;8.652;2022-07-29T15:40:40;4.47;;;3.30;;
11535;SDS011;5824;49.336;8.652;2022-07-29T15:43:07;4.93;;;3.28;;
11535;SDS011;5824;49.336;8.652;2022-07-29T15:45:36;4.30;;;3.33;;
11535;SDS011;5824;49.336;8.652;2022-07-29T15:48:04;5.55;;;3.40;;
11535;SDS011;5824;49.336;8.652;2022-07-29T15:50:31;7.93;;;3.00;;
11535;SDS011;5824;49.336;8.652;2022-07-29T15:52:57;4.82;;;3.10;;
11535;SDS011;5824;49.336;8.652;2022-07-29T15:55:22;6.22;;;3.42;;